sensor_id;sensor_type;location;lat;lon;timestamp;temperature;humidity
48744;DHT22;34538;48.836;9.174;2024-01-30T00:00:37;2.10;99.90
48744;DHT22;34538;48.836;9.174;2024-01-30T00:03:04;2.10;99.90
48744;DHT22;34538;48.836;9.174;2024-01-30T00:05:31;2.10;99.90
48744;DHT22;34538;48.836;9.174;2024-01-30T00:08:00;2.10;99.90
48744;DHT22;34538;48.836;9.174;2024-01-30T00:10:26;2.10;99.90
48744;DHT22;34538;48.836;9.174;2024-01-30T00:12:53;2.10;99.90
48744;DHT22;34538;48.836;9.174;2024-01-30T00:15:20;2.10;99.90
48744;DHT22;34538;48.836;9.174;2024-01-30T00:17:47;2.10;99.90
48744;DHT22;34538;48.836;9.174;2024-01-30T00:20:14;2.10;99.90
48744;DHT22;34538;48.836;9.174;2024-01-30T00:22:41;2.00;99.90
48744;DHT22;34538;48.836;9.174;2024-01-30T00:25:09;2.00;99.90
48744;DHT22;34538;48.836;9.174;2024-01-30T00:27:36;2.00;99.90
48744;DHT22;34538;48.836;9.174;2024-01-30T00:30:03;2.00;99.90
48744;DHT22;34538;48.836;9.174;2024-01-30T00:32:30;2.00;99.90
48744;DHT22;34538;48.836;9.174;2024-01-30T00:34:57;2.00;99.90
48744;DHT22;34538;48.836;9.174;2024-01-30T00:37:24;2.00;99.90
48744;DHT22;34538;48.836;9.174;2024-01-30T00:39:51;2.00;99.90
48744;DHT22;34538;48.836;9.174;2024-01-30T00:42:20;2.00;99.90
48744;DHT22;34538;48.836;9.174;2024-01-30T00:44:47;2.00;99.90
48744;DHT22;34538;48.836;9.174;2024-01-30T00:47:13;2.00;99.90
48744;DHT22;34538;48.836;9.174;2024-01-30T00:49:40;2.00;99.90
48744;DHT22;34538;48.836;9.174;2024-01-30T00:52:07;2.00;99.90
48744;DHT22;34538;48.836;9.174;2024-01-30T00:54:34;2.00;99.90
48744;DHT22;34538;48.836;9.174;2024-01-30T00:57:01;2.00;99.90
48744;DHT22;34538;48.836;9.174;2024-01-30T00:59:29;2.00;99.90
48744;DHT22;34538;48.836;9.174;2024-01-30T01:01:56;2.00;99.90
48744;DHT22;34538;48.836;9.174;2024-01-30T01:04:23;2.00;99.90
48744;DHT22;34538;48.836;9.174;2024-01-30T01:06:50;1.90;99.90
48744;DHT22;34538;48.836;9.174;2024-01-30T01:09:17;1.90;99.90
48744;DHT22;34538;48.836;9.174;2024-01-30T01:11:44;1.90;99.90
48744;DHT22;34538;48.836;9.174;2024-01-30T01:14:11;1.90;99.90
48744;DHT22;34538;48.836;9.174;2024-01-30T01:16:39;1.90;99.90
48744;DHT22;34538;48.836;9.174;2024-01-30T01:19:05;1.90;99.90
48744;DHT22;34538;48.836;9.174;2024-01-30T01:21:32;1.90;99.90
48744;DHT22;34538;48.836;9.174;2024-01-30T01:23:59;1.90;99.90
48744;DHT22;34538;48.836;9.174;2024-01-30T01:26:26;1.80;99.90
48744;DHT22;34538;48.836;9.174;2024-01-30T01:28:53;1.80;99.90
48744;DHT22;34538;48.836;9.174;2024-01-30T01:31:20;1.80;99.90
48744;DHT22;34538;48.836;9.174;2024-01-30T01:33:51;1.80;99.90
48744;DHT22;34538;48.836;9.174;2024-01-30T01:36:18;1.80;99.90
48744;DHT22;34538;48.836;9.174;2024-01-30T01:38:45;1.80;99.90
48744;DHT22;34538;48.836;9.174;2024-01-30T01:41:12;1.80;99.90
48744;DHT22;34538;48.836;9.174;2024-01-30T01:43:39;1.80;99.90
48744;DHT22;34538;48.836;9.174;2024-01-30T01:46:06;1.70;99.90
48744;DHT22;34538;48.836;9.174;2024-01-30T01:48:34;1.70;99.90
48744;DHT22;34538;48.836;9.174;2024-01-30T01:51:02;1.70;99.90
48744;DHT22;34538;48.836;9.174;2024-01-30T01:53:30;1.70;99.90
48744;DHT22;34538;48.836;9.174;2024-01-30T01:55:58;1.70;99.90
48744;DHT22;34538;48.836;9.174;2024-01-30T01:58:27;1.70;99.90
48744;DHT22;34538;48.836;9.174;2024-01-30T02:00:56;1.70;99.90
48744;DHT22;34538;48.836;9.174;2024-01-30T02:03:23;1.70;99.90
48744;DHT22;34538;48.836;9.174;2024-01-30T02:05:51;1.70;99.90
48744;DHT22;34538;48.836;9.174;2024-01-30T02:08:20;1.70;99.90
48744;DHT22;34538;48.836;9.174;2024-01-30T02:10:47;1.60;99.90
48744;DHT22;34538;48.836;9.174;2024-01-30T02:13:13;1.60;99.90
48744;DHT22;34538;48.836;9.174;2024-01-30T02:15:40;1.60;99.90
48744;DHT22;34538;48.836;9.174;2024-01-30T02:18:07;1.60;99.90
48744;DHT22;34538;48.836;9.174;2024-01-30T02:20:35;1.50;99.90
48744;DHT22;34538;48.836;9.174;2024-01-30T02:23:04;1.50;99.90
48744;DHT22;34538;48.836;9.174;2024-01-30T02:25:32;1.50;99.90
48744;DHT22;34538;48.836;9.174;2024-01-30T02:27:59;1.50;99.90
48744;DHT22;34538;48.836;9.174;2024-01-30T02:30:26;1.40;99.90
48744;DHT22;34538;48.836;9.174;2024-01-30T02:32:54;1.50;99.90
48744;DHT22;34538;48.836;9.174;2024-01-30T02:35:21;1.40;99.90
48744;DHT22;34538;48.836;9.174;2024-01-30T02:37:47;1.40;99.90
48744;DHT22;34538;48.836;9.174;2024-01-30T02:40:16;1.40;99.90
48744;DHT22;34538;48.836;9.174;2024-01-30T02:42:43;1.40;99.90
48744;DHT22;34538;48.836;9.174;2024-01-30T02:45:11;1.40;99.90
48744;DHT22;34538;48.836;9.174;2024-01-30T02:47:38;1.40;99.90
48744;DHT22;34538;48.836;9.174;2024-01-30T02:50:06;1.30;99.90
48744;DHT22;34538;48.836;9.174;2024-01-30T02:52:33;1.30;99.90
48744;DHT22;34538;48.836;9.174;2024-01-30T02:55:00;1.30;99.90
48744;DHT22;34538;48.836;9.174;2024-01-30T02:57:28;1.30;99.90
48744;DHT22;34538;48.836;9.174;2024-01-30T02:59:55;1.30;99.90
48744;DHT22;34538;48.836;9.174;2024-01-30T03:02:22;1.30;99.90
48744;DHT22;34538;48.836;9.174;2024-01-30T03:04:49;1.30;99.90
48744;DHT22;34538;48.836;9.174;2024-01-30T03:07:15;1.30;99.90
48744;DHT22;34538;48.836;9.174;2024-01-30T03:09:42;1.30;99.90
48744;DHT22;34538;48.836;9.174;2024-01-30T03:12:09;1.30;99.90
48744;DHT22;34538;48.836;9.174;2024-01-30T03:14:38;1.30;99.90
48744;DHT22;34538;48.836;9.174;2024-01-30T03:17:04;1.30;99.90
48744;DHT22;34538;48.836;9.174;2024-01-30T03:19:31;1.20;99.90
48744;DHT22;34538;48.836;9.174;2024-01-30T03:21:58;1.20;99.90
48744;DHT22;34538;48.836;9.174;2024-01-30T03:24:25;1.20;99.90
48744;DHT22;34538;48.836;9.174;2024-01-30T03:26:53;1.20;99.90
48744;DHT22;34538;48.836;9.174;2024-01-30T03:29:19;1.20;99.90
48744;DHT22;34538;48.836;9.174;2024-01-30T03:31:48;1.20;99.90
48744;DHT22;34538;48.836;9.174;2024-01-30T03:34:14;1.20;99.90
48744;DHT22;34538;48.836;9.174;2024-01-30T03:36:41;1.20;99.90
48744;DHT22;34538;48.836;9.174;2024-01-30T03:39:08;1.20;99.90
48744;DHT22;34538;48.836;9.174;2024-01-30T03:41:35;1.20;99.90
48744;DHT22;34538;48.836;9.174;2024-01-30T03:44:02;1.20;99.90
48744;DHT22;34538;48.836;9.174;2024-01-30T03:46:29;1.10;99.90
48744;DHT22;34538;48.836;9.174;2024-01-30T03:48:57;1.10;99.90
48744;DHT22;34538;48.836;9.174;2024-01-30T03:51:24;1.10;99.90
48744;DHT22;34538;48.836;9.174;2024-01-30T03:53:51;1.10;99.90
48744;DHT22;34538;48.836;9.174;2024-01-30T03:56:17;1.10;99.90
48744;DHT22;34538;48.836;9.174;2024-01-30T03:58:44;1.00;99.90
48744;DHT22;34538;48.836;9.174;2024-01-30T04:01:13;1.10;99.90
48744;DHT22;34538;48.836;9.174;2024-01-30T04:03:40;1.00;99.90
48744;DHT22;34538;48.836;9.174;2024-01-30T04:06:08;1.00;99.90
48744;DHT22;34538;48.836;9.174;2024-01-30T04:08:35;1.00;99.90
48744;DHT22;34538;48.836;9.174;2024-01-30T04:11:03;1.00;99.90
48744;DHT22;34538;48.836;9.174;2024-01-30T04:13:31;1.00;99.90
48744;DHT22;34538;48.836;9.174;2024-01-30T04:15:59;1.00;99.90
48744;DHT22;34538;48.836;9.174;2024-01-30T04:18:27;1.00;99.90
48744;DHT22;34538;48.836;9.174;2024-01-30T04:20:54;1.00;99.90
48744;DHT22;34538;48.836;9.174;2024-01-30T04:23:22;0.90;99.90
48744;DHT22;34538;48.836;9.174;2024-01-30T04:25:49;1.00;99.90
48744;DHT22;34538;48.836;9.174;2024-01-30T04:28:15;0.90;99.90
48744;DHT22;34538;48.836;9.174;2024-01-30T04:30:42;0.90;99.90
48744;DHT22;34538;48.836;9.174;2024-01-30T04:33:10;0.90;99.90
48744;DHT22;34538;48.836;9.174;2024-01-30T04:35:37;0.80;99.90
48744;DHT22;34538;48.836;9.174;2024-01-30T04:38:04;0.80;99.90
48744;DHT22;34538;48.836;9.174;2024-01-30T04:40:32;0.80;99.90
48744;DHT22;34538;48.836;9.174;2024-01-30T04:42:59;0.80;99.90
48744;DHT22;34538;48.836;9.174;2024-01-30T04:45:25;0.80;99.90
48744;DHT22;34538;48.836;9.174;2024-01-30T04:47:52;0.80;99.90
48744;DHT22;34538;48.836;9.174;2024-01-30T04:50:19;0.80;99.90
48744;DHT22;34538;48.836;9.174;2024-01-30T04:52:46;0.80;99.90
48744;DHT22;34538;48.836;9.174;2024-01-30T04:55:13;0.80;99.90
48744;DHT22;34538;48.836;9.174;2024-01-30T04:57:41;0.80;99.90
48744;DHT22;34538;48.836;9.174;2024-01-30T05:00:09;0.80;99.90
48744;DHT22;34538;48.836;9.174;2024-01-30T05:02:36;0.80;99.90
48744;DHT22;34538;48.836;9.174;2024-01-30T05:05:03;0.70;99.90
48744;DHT22;34538;48.836;9.174;2024-01-30T05:07:30;0.80;99.90
48744;DHT22;34538;48.836;9.174;2024-01-30T05:09:56;0.80;99.90
48744;DHT22;34538;48.836;9.174;2024-01-30T05:12:23;0.80;99.90
48744;DHT22;34538;48.836;9.174;2024-01-30T05:14:51;0.80;99.90
48744;DHT22;34538;48.836;9.174;2024-01-30T05:17:18;0.80;99.90
48744;DHT22;34538;48.836;9.174;2024-01-30T05:19:45;0.80;99.90
48744;DHT22;34538;48.836;9.174;2024-01-30T05:22:12;0.80;99.90
48744;DHT22;34538;48.836;9.174;2024-01-30T05:24:41;0.90;99.90
48744;DHT22;34538;48.836;9.174;2024-01-30T05:27:07;0.90;99.90
48744;DHT22;34538;48.836;9.174;2024-01-30T05:29:34;0.90;99.90
48744;DHT22;34538;48.836;9.174;2024-01-30T05:32:03;0.90;99.90
48744;DHT22;34538;48.836;9.174;2024-01-30T05:34:31;0.90;99.90
48744;DHT22;34538;48.836;9.174;2024-01-30T05:36:58;0.90;99.90
48744;DHT22;34538;48.836;9.174;2024-01-30T05:39:24;0.90;99.90
48744;DHT22;34538;48.836;9.174;2024-01-30T05:41:51;0.90;99.90
48744;DHT22;34538;48.836;9.174;2024-01-30T05:44:18;1.00;99.90
48744;DHT22;34538;48.836;9.174;2024-01-30T05:46:45;1.00;99.90
48744;DHT22;34538;48.836;9.174;2024-01-30T05:49:13;1.00;99.90
48744;DHT22;34538;48.836;9.174;2024-01-30T05:51:40;1.10;99.90
48744;DHT22;34538;48.836;9.174;2024-01-30T05:54:07;1.10;99.90
48744;DHT22;34538;48.836;9.174;2024-01-30T05:56:34;1.10;99.90
48744;DHT22;34538;48.836;9.174;2024-01-30T05:59:01;1.10;99.90
48744;DHT22;34538;48.836;9.174;2024-01-30T06:01:28;1.10;99.90
48744;DHT22;34538;48.836;9.174;2024-01-30T06:03:55;1.10;99.90
48744;DHT22;34538;48.836;9.174;2024-01-30T06:06:23;1.10;99.90
48744;DHT22;34538;48.836;9.174;2024-01-30T06:08:50;1.10;99.90
48744;DHT22;34538;48.836;9.174;2024-01-30T06:11:17;1.10;99.90
48744;DHT22;34538;48.836;9.174;2024-01-30T06:13:43;1.20;99.90
48744;DHT22;34538;48.836;9.174;2024-01-30T06:16:10;1.10;99.90
48744;DHT22;34538;48.836;9.174;2024-01-30T06:18:37;1.20;99.90
48744;DHT22;34538;48.836;9.174;2024-01-30T06:21:04;1.20;99.90
48744;DHT22;34538;48.836;9.174;2024-01-30T06:23:33;1.20;99.90
48744;DHT22;34538;48.836;9.174;2024-01-30T06:26:00;1.20;99.90
48744;DHT22;34538;48.836;9.174;2024-01-30T06:28:26;1.20;99.90
48744;DHT22;34538;48.836;9.174;2024-01-30T06:30:53;1.20;99.90
48744;DHT22;34538;48.836;9.174;2024-01-30T06:33:20;1.30;99.90
48744;DHT22;34538;48.836;9.174;2024-01-30T06:35:47;1.30;99.90
48744;DHT22;34538;48.836;9.174;2024-01-30T06:38:14;1.20;99.90
48744;DHT22;34538;48.836;9.174;2024-01-30T06:40:43;1.20;99.90
48744;DHT22;34538;48.836;9.174;2024-01-30T06:43:10;1.20;99.90
48744;DHT22;34538;48.836;9.174;2024-01-30T06:45:36;1.20;99.90
48744;DHT22;34538;48.836;9.174;2024-01-30T06:48:04;1.20;99.90
48744;DHT22;34538;48.836;9.174;2024-01-30T06:50:30;1.20;99.90
48744;DHT22;34538;48.836;9.174;2024-01-30T06:52:57;1.20;99.90
48744;DHT22;34538;48.836;9.174;2024-01-30T06:55:24;1.20;99.90
48744;DHT22;34538;48.836;9.174;2024-01-30T06:57:52;1.20;99.90
48744;DHT22;34538;48.836;9.174;2024-01-30T07:00:19;1.20;99.90
48744;DHT22;34538;48.836;9.174;2024-01-30T07:02:47;1.20;99.90
48744;DHT22;34538;48.836;9.174;2024-01-30T07:05:14;1.30;99.90
48744;DHT22;34538;48.836;9.174;2024-01-30T07:07:41;1.30;99.90
48744;DHT22;34538;48.836;9.174;2024-01-30T07:10:08;1.30;99.90
48744;DHT22;34538;48.836;9.174;2024-01-30T07:12:35;1.30;99.90
48744;DHT22;34538;48.836;9.174;2024-01-30T07:15:04;1.40;99.90
48744;DHT22;34538;48.836;9.174;2024-01-30T07:17:33;1.40;99.90
48744;DHT22;34538;48.836;9.174;2024-01-30T07:20:00;1.50;99.90
48744;DHT22;34538;48.836;9.174;2024-01-30T07:22:29;1.50;99.90
48744;DHT22;34538;48.836;9.174;2024-01-30T07:24:56;1.60;99.90
48744;DHT22;34538;48.836;9.174;2024-01-30T07:27:24;1.50;99.90
48744;DHT22;34538;48.836;9.174;2024-01-30T07:29:51;1.60;99.90
48744;DHT22;34538;48.836;9.174;2024-01-30T07:32:19;1.60;99.90
48744;DHT22;34538;48.836;9.174;2024-01-30T07:34:46;1.60;99.90
48744;DHT22;34538;48.836;9.174;2024-01-30T07:37:13;1.60;99.90
48744;DHT22;34538;48.836;9.174;2024-01-30T07:39:41;1.60;99.90
48744;DHT22;34538;48.836;9.174;2024-01-30T07:42:08;1.60;99.90
48744;DHT22;34538;48.836;9.174;2024-01-30T07:44:35;1.60;99.90
48744;DHT22;34538;48.836;9.174;2024-01-30T07:47:02;1.70;99.90
48744;DHT22;34538;48.836;9.174;2024-01-30T07:49:31;1.70;99.90
48744;DHT22;34538;48.836;9.174;2024-01-30T07:51:57;1.70;99.90
48744;DHT22;34538;48.836;9.174;2024-01-30T07:54:25;1.70;99.90
48744;DHT22;34538;48.836;9.174;2024-01-30T07:56:52;1.80;99.90
48744;DHT22;34538;48.836;9.174;2024-01-30T07:59:19;1.80;99.90
48744;DHT22;34538;48.836;9.174;2024-01-30T08:01:50;1.90;99.90
48744;DHT22;34538;48.836;9.174;2024-01-30T08:04:17;1.90;99.90
48744;DHT22;34538;48.836;9.174;2024-01-30T08:06:45;2.00;99.90
48744;DHT22;34538;48.836;9.174;2024-01-30T08:09:12;2.00;99.90
48744;DHT22;34538;48.836;9.174;2024-01-30T08:11:39;2.10;99.90
48744;DHT22;34538;48.836;9.174;2024-01-30T08:14:05;2.20;99.90
48744;DHT22;34538;48.836;9.174;2024-01-30T08:16:32;2.30;99.90
48744;DHT22;34538;48.836;9.174;2024-01-30T08:18:59;2.40;99.90
48744;DHT22;34538;48.836;9.174;2024-01-30T08:21:26;2.50;99.90
48744;DHT22;34538;48.836;9.174;2024-01-30T08:23:54;2.60;99.90
48744;DHT22;34538;48.836;9.174;2024-01-30T08:26:21;2.80;99.90
48744;DHT22;34538;48.836;9.174;2024-01-30T08:28:48;2.90;99.90
48744;DHT22;34538;48.836;9.174;2024-01-30T08:31:15;3.00;99.90
48744;DHT22;34538;48.836;9.174;2024-01-30T08:33:42;3.10;99.90
48744;DHT22;34538;48.836;9.174;2024-01-30T08:36:09;3.30;99.90
48744;DHT22;34538;48.836;9.174;2024-01-30T08:38:36;3.40;99.90
48744;DHT22;34538;48.836;9.174;2024-01-30T08:41:04;3.60;99.90
48744;DHT22;34538;48.836;9.174;2024-01-30T08:43:31;3.70;99.90
48744;DHT22;34538;48.836;9.174;2024-01-30T08:45:59;3.80;99.90
48744;DHT22;34538;48.836;9.174;2024-01-30T08:48:25;3.90;99.90
48744;DHT22;34538;48.836;9.174;2024-01-30T08:50:52;4.00;99.90
48744;DHT22;34538;48.836;9.174;2024-01-30T08:53:19;4.20;99.90
48744;DHT22;34538;48.836;9.174;2024-01-30T08:55:46;4.30;99.90
48744;DHT22;34538;48.836;9.174;2024-01-30T08:58:15;4.30;99.90
48744;DHT22;34538;48.836;9.174;2024-01-30T09:00:44;4.50;99.90
48744;DHT22;34538;48.836;9.174;2024-01-30T09:03:10;4.50;99.90
48744;DHT22;34538;48.836;9.174;2024-01-30T09:05:37;4.60;99.90
48744;DHT22;34538;48.836;9.174;2024-01-30T09:08:04;4.70;99.90
48744;DHT22;34538;48.836;9.174;2024-01-30T09:10:31;4.80;99.90
48744;DHT22;34538;48.836;9.174;2024-01-30T09:12:58;4.80;99.90
48744;DHT22;34538;48.836;9.174;2024-01-30T09:15:26;4.90;99.90
48744;DHT22;34538;48.836;9.174;2024-01-30T09:17:52;5.00;99.90
48744;DHT22;34538;48.836;9.174;2024-01-30T09:20:19;5.10;99.90
48744;DHT22;34538;48.836;9.174;2024-01-30T09:22:48;5.10;99.90
48744;DHT22;34538;48.836;9.174;2024-01-30T09:25:15;5.20;99.90
48744;DHT22;34538;48.836;9.174;2024-01-30T09:27:41;5.30;99.90
48744;DHT22;34538;48.836;9.174;2024-01-30T09:30:09;5.40;99.90
48744;DHT22;34538;48.836;9.174;2024-01-30T09:32:39;5.50;99.90
48744;DHT22;34538;48.836;9.174;2024-01-30T09:35:06;5.60;99.90
48744;DHT22;34538;48.836;9.174;2024-01-30T09:37:33;5.60;99.90
48744;DHT22;34538;48.836;9.174;2024-01-30T09:40:00;5.70;99.90
48744;DHT22;34538;48.836;9.174;2024-01-30T09:42:33;5.80;99.90
48744;DHT22;34538;48.836;9.174;2024-01-30T09:45:00;5.90;99.90
48744;DHT22;34538;48.836;9.174;2024-01-30T09:47:30;6.00;99.90
48744;DHT22;34538;48.836;9.174;2024-01-30T09:49:58;6.10;99.90
48744;DHT22;34538;48.836;9.174;2024-01-30T09:52:26;6.10;99.90
48744;DHT22;34538;48.836;9.174;2024-01-30T09:54:53;6.20;99.90
48744;DHT22;34538;48.836;9.174;2024-01-30T09:57:20;6.30;99.90
48744;DHT22;34538;48.836;9.174;2024-01-30T09:59:47;6.40;99.90
48744;DHT22;34538;48.836;9.174;2024-01-30T10:02:14;6.50;99.90
48744;DHT22;34538;48.836;9.174;2024-01-30T10:04:42;6.60;99.90
48744;DHT22;34538;48.836;9.174;2024-01-30T10:07:10;6.80;99.90
48744;DHT22;34538;48.836;9.174;2024-01-30T10:09:38;6.80;99.90
48744;DHT22;34538;48.836;9.174;2024-01-30T10:12:06;7.00;99.90
48744;DHT22;34538;48.836;9.174;2024-01-30T10:14:33;7.00;99.90
48744;DHT22;34538;48.836;9.174;2024-01-30T10:17:01;7.20;99.90
48744;DHT22;34538;48.836;9.174;2024-01-30T10:19:28;7.20;99.90
48744;DHT22;34538;48.836;9.174;2024-01-30T10:21:55;7.40;99.90
48744;DHT22;34538;48.836;9.174;2024-01-30T10:24:25;7.40;99.90
48744;DHT22;34538;48.836;9.174;2024-01-30T10:26:53;7.60;99.90
48744;DHT22;34538;48.836;9.174;2024-01-30T10:29:20;7.60;99.90
48744;DHT22;34538;48.836;9.174;2024-01-30T10:31:57;7.70;99.90
48744;DHT22;34538;48.836;9.174;2024-01-30T10:34:24;7.80;99.90
48744;DHT22;34538;48.836;9.174;2024-01-30T10:36:59;7.90;99.90
48744;DHT22;34538;48.836;9.174;2024-01-30T10:39:29;8.00;99.90
48744;DHT22;34538;48.836;9.174;2024-01-30T10:42:03;8.00;99.90
48744;DHT22;34538;48.836;9.174;2024-01-30T10:44:36;8.10;99.90
48744;DHT22;34538;48.836;9.174;2024-01-30T10:47:06;8.10;99.90
48744;DHT22;34538;48.836;9.174;2024-01-30T10:49:35;8.20;99.90
48744;DHT22;34538;48.836;9.174;2024-01-30T10:52:03;8.30;99.90
48744;DHT22;34538;48.836;9.174;2024-01-30T10:54:33;8.30;99.90
48744;DHT22;34538;48.836;9.174;2024-01-30T10:57:01;8.40;99.90
48744;DHT22;34538;48.836;9.174;2024-01-30T10:59:29;8.40;99.90
48744;DHT22;34538;48.836;9.174;2024-01-30T11:01:57;8.50;99.90
48744;DHT22;34538;48.836;9.174;2024-01-30T11:04:24;8.50;99.90
48744;DHT22;34538;48.836;9.174;2024-01-30T11:06:51;8.60;99.90
48744;DHT22;34538;48.836;9.174;2024-01-30T11:09:20;8.60;99.90
48744;DHT22;34538;48.836;9.174;2024-01-30T11:11:51;8.70;99.90
48744;DHT22;34538;48.836;9.174;2024-01-30T11:14:23;8.80;99.90
48744;DHT22;34538;48.836;9.174;2024-01-30T11:16:50;8.90;99.90
48744;DHT22;34538;48.836;9.174;2024-01-30T11:19:22;8.90;99.90
48744;DHT22;34538;48.836;9.174;2024-01-30T11:21:50;9.00;99.90
48744;DHT22;34538;48.836;9.174;2024-01-30T11:24:19;9.10;99.90
48744;DHT22;34538;48.836;9.174;2024-01-30T11:26:48;9.10;99.90
48744;DHT22;34538;48.836;9.174;2024-01-30T11:29:16;9.20;99.90
48744;DHT22;34538;48.836;9.174;2024-01-30T11:31:51;9.30;99.90
48744;DHT22;34538;48.836;9.174;2024-01-30T11:34:19;9.30;99.90
48744;DHT22;34538;48.836;9.174;2024-01-30T11:36:51;9.40;99.90
48744;DHT22;34538;48.836;9.174;2024-01-30T11:39:21;9.50;99.90
48744;DHT22;34538;48.836;9.174;2024-01-30T11:41:50;9.50;99.90
48744;DHT22;34538;48.836;9.174;2024-01-30T11:44:20;9.60;99.90
48744;DHT22;34538;48.836;9.174;2024-01-30T11:46:47;9.70;99.90
48744;DHT22;34538;48.836;9.174;2024-01-30T11:49:14;9.70;99.90
48744;DHT22;34538;48.836;9.174;2024-01-30T11:51:42;9.70;99.90
48744;DHT22;34538;48.836;9.174;2024-01-30T11:54:09;9.80;99.90
48744;DHT22;34538;48.836;9.174;2024-01-30T11:56:36;9.80;99.90
48744;DHT22;34538;48.836;9.174;2024-01-30T11:59:04;9.90;99.90
48744;DHT22;34538;48.836;9.174;2024-01-30T12:01:32;9.90;99.90
48744;DHT22;34538;48.836;9.174;2024-01-30T12:03:59;10.00;99.90
48744;DHT22;34538;48.836;9.174;2024-01-30T12:06:26;10.00;99.90
48744;DHT22;34538;48.836;9.174;2024-01-30T12:08:57;10.10;99.90
48744;DHT22;34538;48.836;9.174;2024-01-30T12:11:25;10.10;99.90
48744;DHT22;34538;48.836;9.174;2024-01-30T12:13:52;10.20;99.90
48744;DHT22;34538;48.836;9.174;2024-01-30T12:16:20;10.20;99.90
48744;DHT22;34538;48.836;9.174;2024-01-30T12:18:48;10.30;99.90
48744;DHT22;34538;48.836;9.174;2024-01-30T12:21:16;10.30;99.90
48744;DHT22;34538;48.836;9.174;2024-01-30T12:23:43;10.30;99.90
48744;DHT22;34538;48.836;9.174;2024-01-30T12:26:10;10.30;99.90
48744;DHT22;34538;48.836;9.174;2024-01-30T12:28:47;10.30;99.90
48744;DHT22;34538;48.836;9.174;2024-01-30T12:31:14;10.40;99.90
48744;DHT22;34538;48.836;9.174;2024-01-30T12:33:41;10.50;99.90
48744;DHT22;34538;48.836;9.174;2024-01-30T12:36:09;10.50;99.90
48744;DHT22;34538;48.836;9.174;2024-01-30T12:38:38;10.60;99.90
48744;DHT22;34538;48.836;9.174;2024-01-30T12:41:07;10.60;99.90
48744;DHT22;34538;48.836;9.174;2024-01-30T12:43:34;10.60;99.90
48744;DHT22;34538;48.836;9.174;2024-01-30T12:46:01;10.70;99.90
48744;DHT22;34538;48.836;9.174;2024-01-30T12:48:29;10.70;99.90
48744;DHT22;34538;48.836;9.174;2024-01-30T12:50:56;10.70;99.90
48744;DHT22;34538;48.836;9.174;2024-01-30T12:53:24;10.80;99.90
48744;DHT22;34538;48.836;9.174;2024-01-30T12:55:51;10.80;99.90
48744;DHT22;34538;48.836;9.174;2024-01-30T12:58:19;10.80;99.90
48744;DHT22;34538;48.836;9.174;2024-01-30T13:00:46;10.90;99.90
48744;DHT22;34538;48.836;9.174;2024-01-30T13:03:13;11.00;99.90
48744;DHT22;34538;48.836;9.174;2024-01-30T13:05:40;11.00;99.90
48744;DHT22;34538;48.836;9.174;2024-01-30T13:08:07;11.00;99.90
48744;DHT22;34538;48.836;9.174;2024-01-30T13:10:35;11.00;99.90
48744;DHT22;34538;48.836;9.174;2024-01-30T13:13:02;11.10;99.90
48744;DHT22;34538;48.836;9.174;2024-01-30T13:15:31;11.20;99.90
48744;DHT22;34538;48.836;9.174;2024-01-30T13:18:00;11.20;99.90
48744;DHT22;34538;48.836;9.174;2024-01-30T13:20:30;11.30;99.90
48744;DHT22;34538;48.836;9.174;2024-01-30T13:22:59;11.40;99.90
48744;DHT22;34538;48.836;9.174;2024-01-30T13:25:30;11.40;99.90
48744;DHT22;34538;48.836;9.174;2024-01-30T13:28:01;11.50;99.90
48744;DHT22;34538;48.836;9.174;2024-01-30T13:30:30;11.60;99.90
48744;DHT22;34538;48.836;9.174;2024-01-30T13:33:00;11.60;99.90
48744;DHT22;34538;48.836;9.174;2024-01-30T13:35:28;11.70;99.90
48744;DHT22;34538;48.836;9.174;2024-01-30T13:37:55;11.70;99.90
48744;DHT22;34538;48.836;9.174;2024-01-30T13:40:22;11.70;99.90
48744;DHT22;34538;48.836;9.174;2024-01-30T13:42:50;11.70;99.90
48744;DHT22;34538;48.836;9.174;2024-01-30T13:45:18;11.70;99.90
48744;DHT22;34538;48.836;9.174;2024-01-30T13:47:44;11.70;99.90
48744;DHT22;34538;48.836;9.174;2024-01-30T13:50:11;11.70;99.90
48744;DHT22;34538;48.836;9.174;2024-01-30T13:52:40;11.70;99.90
48744;DHT22;34538;48.836;9.174;2024-01-30T13:55:07;11.70;99.90
48744;DHT22;34538;48.836;9.174;2024-01-30T13:57:35;11.70;99.90
48744;DHT22;34538;48.836;9.174;2024-01-30T14:00:02;11.70;99.90
48744;DHT22;34538;48.836;9.174;2024-01-30T14:02:39;11.70;99.90
48744;DHT22;34538;48.836;9.174;2024-01-30T14:05:07;11.70;99.90
48744;DHT22;34538;48.836;9.174;2024-01-30T14:07:35;11.70;99.90
48744;DHT22;34538;48.836;9.174;2024-01-30T14:10:02;11.70;99.90
48744;DHT22;34538;48.836;9.174;2024-01-30T14:12:29;11.60;99.90
48744;DHT22;34538;48.836;9.174;2024-01-30T14:14:56;11.60;99.90
48744;DHT22;34538;48.836;9.174;2024-01-30T14:17:23;11.60;99.90
48744;DHT22;34538;48.836;9.174;2024-01-30T14:19:51;11.50;99.90
48744;DHT22;34538;48.836;9.174;2024-01-30T14:22:18;11.60;99.90
48744;DHT22;34538;48.836;9.174;2024-01-30T14:24:45;11.50;99.90
48744;DHT22;34538;48.836;9.174;2024-01-30T14:27:12;11.60;99.90
48744;DHT22;34538;48.836;9.174;2024-01-30T14:29:39;11.50;99.90
48744;DHT22;34538;48.836;9.174;2024-01-30T14:32:07;11.50;99.90
48744;DHT22;34538;48.836;9.174;2024-01-30T14:34:34;11.50;99.90
48744;DHT22;34538;48.836;9.174;2024-01-30T14:37:02;11.40;99.90
48744;DHT22;34538;48.836;9.174;2024-01-30T14:39:29;11.40;99.90
48744;DHT22;34538;48.836;9.174;2024-01-30T14:41:57;11.30;99.90
48744;DHT22;34538;48.836;9.174;2024-01-30T14:44:24;11.30;99.90
48744;DHT22;34538;48.836;9.174;2024-01-30T14:46:51;11.20;99.90
48744;DHT22;34538;48.836;9.174;2024-01-30T14:49:18;11.20;99.90
48744;DHT22;34538;48.836;9.174;2024-01-30T14:51:45;11.10;99.90
48744;DHT22;34538;48.836;9.174;2024-01-30T14:54:13;11.10;99.90
48744;DHT22;34538;48.836;9.174;2024-01-30T14:56:40;11.00;99.90
48744;DHT22;34538;48.836;9.174;2024-01-30T14:59:07;11.00;99.90
48744;DHT22;34538;48.836;9.174;2024-01-30T15:01:34;11.00;99.90
48744;DHT22;34538;48.836;9.174;2024-01-30T15:04:01;11.00;99.90
48744;DHT22;34538;48.836;9.174;2024-01-30T15:06:28;11.00;99.90
48744;DHT22;34538;48.836;9.174;2024-01-30T15:08:55;10.90;99.90
48744;DHT22;34538;48.836;9.174;2024-01-30T15:11:23;10.90;99.90
48744;DHT22;34538;48.836;9.174;2024-01-30T15:13:49;10.90;99.90
48744;DHT22;34538;48.836;9.174;2024-01-30T15:16:16;10.90;99.90
48744;DHT22;34538;48.836;9.174;2024-01-30T15:18:43;10.80;99.90
48744;DHT22;34538;48.836;9.174;2024-01-30T15:21:10;10.80;99.90
48744;DHT22;34538;48.836;9.174;2024-01-30T15:23:36;10.80;99.90
48744;DHT22;34538;48.836;9.174;2024-01-30T15:26:03;10.70;99.90
48744;DHT22;34538;48.836;9.174;2024-01-30T15:28:35;10.70;99.90
48744;DHT22;34538;48.836;9.174;2024-01-30T15:31:03;10.70;99.90
48744;DHT22;34538;48.836;9.174;2024-01-30T15:33:30;10.70;99.90
48744;DHT22;34538;48.836;9.174;2024-01-30T15:35:57;10.70;99.90
48744;DHT22;34538;48.836;9.174;2024-01-30T15:38:24;10.70;99.90
48744;DHT22;34538;48.836;9.174;2024-01-30T15:40:51;10.60;99.90
48744;DHT22;34538;48.836;9.174;2024-01-30T15:43:18;10.60;99.90